Благодатное (полигон)

Карта отелей и гостиниц, располагающихся рядом с аэропортом Благодатное (полигон) :



Благодатное (полигон) Хабаровский край 48° 26' 57.66" N, 135° 33' 10.62" E

Благодатное (полигон) Хабаровский край 48° 26' 57.66" N, 135° 33' 10.62" E
Код аэродрома ИКАО: 
HGA8
Код аэродрома RU: 
ХГА8
Координаты: 
N48.44935° E135.55295°
Превышение над уровнем моря : 
40
Основная полоса: 
07/25
Курс магнитный: 
073,6/253,6
Длина основной ВПП: 
24
Ширина основной ВПП: 
20
Покрытие основной ВПП: 
Твёрдое
Тип: 
Вертодром
Освещение ВПП: 
Нет
Класс аэродрома: 
Статус: 
Действующий
Принадлежность: 
МО
Сайт: 
E-mail аэродрома: 
Страна: 
Россия
Регион: 
Хабаровский край
Город: 
Дополнительная информация: 
Оператор: нет данных. Три однотипных ПП для вертолетов.

Найти трансфер

С помощью этой формы Вы можете найти трансфер из аэропорта Благодатное (полигон) в город, аэропорт или вокзал:

Карта места

Javascript is required to view this map.

Погода в аэропортах:

Авиационная погода в Могилёве

Регион: 
Погода METAR: 
UMOO 210400Z 18002MPS 0200 R31/0550 FZFG VV001 M01/M01 Q1018 NOSIG RMK QBB040
Время наблюдения: 
2020-02-21T04:00:00Z
Температура C: 
-1.0
Точка росы: 
-1.0
Направление ветра: 
180
Скорость ветра: 
4
Метеорологическая видимость: 
0.12
Явления погоды: 
FZFG
Условия полета: 
LIFR
Аэропорт подробнее: 

Авиационная погода в Ставрополе

Регион: 
Погода METAR: 
URMT 210400Z 12005MPS 0100 R07/M0200N FG VV001 01/01 Q1015 R07/120060 NOSIG RMK QBB030 OBST OBSC QFE721
Время наблюдения: 
2020-02-21T04:00:00Z
Температура C: 
1.0
Точка росы: 
1.0
Направление ветра: 
120
Скорость ветра: 
10
Метеорологическая видимость: 
0.06
Явления погоды: 
FG
Условия полета: 
LIFR
Аэропорт подробнее: 

Авиационная погода в Чернобаевке

Регион: 
Погода METAR: 
UKOH 210400Z 01003MPS 3400 BR NSC M03/M03 Q1021 R03/CLRD65 NOSIG
Время наблюдения: 
2020-02-21T04:00:00Z
Температура C: 
-3.0
Точка росы: 
-3.0
Направление ветра: 
10
Скорость ветра: 
6
Метеорологическая видимость: 
2.11
Явления погоды: 
BR
Условия полета: 
IFR
Аэропорт подробнее: 

Авиационная погода в Анапе

Регион: 
Погода METAR: 
URKA 210400Z 07002MPS 4700 BR BKN003 02/02 Q1016 R04/010065 TEMPO 1000 BR BKN002 BKN020CB RMK QBB090 OBST OBSC QFE758/1011
Время наблюдения: 
2020-02-21T04:00:00Z
Температура C: 
2.0
Точка росы: 
2.0
Направление ветра: 
70
Скорость ветра: 
4
Метеорологическая видимость: 
2.92
Явления погоды: 
BR
Условия полета: 
LIFR
Аэропорт подробнее: